sensor_id;sensor_type;location;lat;lon;timestamp;temperature;humidity
67557;DHT22;54387;53.526;49.300;2023-06-05T00:02:13;11.10;58.60
67557;DHT22;54387;53.526;49.300;2023-06-05T00:04:40;11.10;58.60
67557;DHT22;54387;53.526;49.300;2023-06-05T00:07:06;11.10;58.60
67557;DHT22;54387;53.526;49.300;2023-06-05T00:09:33;11.00;58.40
67557;DHT22;54387;53.526;49.300;2023-06-05T00:11:59;11.00;58.60
67557;DHT22;54387;53.526;49.300;2023-06-05T00:14:26;11.00;58.60
67557;DHT22;54387;53.526;49.300;2023-06-05T00:16:52;11.00;58.60
67557;DHT22;54387;53.526;49.300;2023-06-05T00:19:19;11.00;58.60
67557;DHT22;54387;53.526;49.300;2023-06-05T00:21:45;11.00;58.70
67557;DHT22;54387;53.526;49.300;2023-06-05T00:24:12;11.00;58.60
67557;DHT22;54387;53.526;49.300;2023-06-05T00:26:38;11.00;58.60
67557;DHT22;54387;53.526;49.300;2023-06-05T00:29:05;11.00;58.70
67557;DHT22;54387;53.526;49.300;2023-06-05T00:31:31;10.90;58.70
67557;DHT22;54387;53.526;49.300;2023-06-05T00:33:58;11.00;58.70
67557;DHT22;54387;53.526;49.300;2023-06-05T00:36:25;10.90;58.70
67557;DHT22;54387;53.526;49.300;2023-06-05T00:38:51;10.90;58.70
67557;DHT22;54387;53.526;49.300;2023-06-05T00:41:18;10.90;58.80
67557;DHT22;54387;53.526;49.300;2023-06-05T00:43:45;10.90;58.90
67557;DHT22;54387;53.526;49.300;2023-06-05T00:46:11;10.90;58.90
67557;DHT22;54387;53.526;49.300;2023-06-05T00:48:39;10.90;59.00
67557;DHT22;54387;53.526;49.300;2023-06-05T00:51:06;10.90;59.00
67557;DHT22;54387;53.526;49.300;2023-06-05T00:53:34;10.90;58.90
67557;DHT22;54387;53.526;49.300;2023-06-05T00:56:03;10.90;58.90
67557;DHT22;54387;53.526;49.300;2023-06-05T00:58:30;10.90;58.90
67557;DHT22;54387;53.526;49.300;2023-06-05T01:00:58;10.90;58.90
67557;DHT22;54387;53.526;49.300;2023-06-05T01:03:25;10.80;59.00
67557;DHT22;54387;53.526;49.300;2023-06-05T01:05:55;10.80;59.00
67557;DHT22;54387;53.526;49.300;2023-06-05T01:08:31;10.80;59.00
67557;DHT22;54387;53.526;49.300;2023-06-05T01:11:22;10.80;59.20
67557;DHT22;54387;53.526;49.300;2023-06-05T01:16:39;10.80;59.20
67557;DHT22;54387;53.526;49.300;2023-06-05T01:19:06;10.80;59.30
67557;DHT22;54387;53.526;49.300;2023-06-05T01:21:36;10.80;59.30
67557;DHT22;54387;53.526;49.300;2023-06-05T01:24:03;10.80;59.40
67557;DHT22;54387;53.526;49.300;2023-06-05T01:26:45;10.80;60.20
67557;DHT22;54387;53.526;49.300;2023-06-05T01:29:23;10.80;59.60
67557;DHT22;54387;53.526;49.300;2023-06-05T01:31:55;10.80;59.60
67557;DHT22;54387;53.526;49.300;2023-06-05T01:34:25;10.90;59.60
67557;DHT22;54387;53.526;49.300;2023-06-05T01:36:53;10.80;59.50
67557;DHT22;54387;53.526;49.300;2023-06-05T01:39:22;10.90;59.50
67557;DHT22;54387;53.526;49.300;2023-06-05T01:41:49;10.80;59.50
67557;DHT22;54387;53.526;49.300;2023-06-05T01:44:16;10.90;59.50
67557;DHT22;54387;53.526;49.300;2023-06-05T01:46:44;10.90;59.50
67557;DHT22;54387;53.526;49.300;2023-06-05T01:49:11;11.00;59.60
67557;DHT22;54387;53.526;49.300;2023-06-05T01:51:37;11.00;59.40
67557;DHT22;54387;53.526;49.300;2023-06-05T01:54:04;11.00;59.30
67557;DHT22;54387;53.526;49.300;2023-06-05T01:56:32;11.00;59.20
67557;DHT22;54387;53.526;49.300;2023-06-05T01:58:58;11.00;59.20
67557;DHT22;54387;53.526;49.300;2023-06-05T02:01:25;11.00;59.10
67557;DHT22;54387;53.526;49.300;2023-06-05T02:03:54;11.10;59.20
67557;DHT22;54387;53.526;49.300;2023-06-05T02:06:23;11.10;59.00
67557;DHT22;54387;53.526;49.300;2023-06-05T02:08:51;11.10;59.00
67557;DHT22;54387;53.526;49.300;2023-06-05T02:11:17;11.10;58.90
67557;DHT22;54387;53.526;49.300;2023-06-05T02:13:43;11.20;58.90
67557;DHT22;54387;53.526;49.300;2023-06-05T02:16:11;11.20;58.70
67557;DHT22;54387;53.526;49.300;2023-06-05T02:18:38;11.20;58.60
67557;DHT22;54387;53.526;49.300;2023-06-05T02:21:04;11.30;58.50
67557;DHT22;54387;53.526;49.300;2023-06-05T02:23:31;11.30;58.40
67557;DHT22;54387;53.526;49.300;2023-06-05T02:25:58;11.30;58.20
67557;DHT22;54387;53.526;49.300;2023-06-05T02:28:24;11.30;58.10
67557;DHT22;54387;53.526;49.300;2023-06-05T02:30:54;11.40;58.20
67557;DHT22;54387;53.526;49.300;2023-06-05T02:33:21;11.40;58.00
67557;DHT22;54387;53.526;49.300;2023-06-05T02:35:47;11.50;57.90
67557;DHT22;54387;53.526;49.300;2023-06-05T02:38:13;11.50;57.70
67557;DHT22;54387;53.526;49.300;2023-06-05T02:40:40;11.50;57.50
67557;DHT22;54387;53.526;49.300;2023-06-05T02:43:07;11.60;57.50
67557;DHT22;54387;53.526;49.300;2023-06-05T02:45:34;11.60;57.50
67557;DHT22;54387;53.526;49.300;2023-06-05T02:48:01;11.60;57.30
67557;DHT22;54387;53.526;49.300;2023-06-05T02:50:27;11.70;57.30
67557;DHT22;54387;53.526;49.300;2023-06-05T02:52:53;11.70;57.30
67557;DHT22;54387;53.526;49.300;2023-06-05T02:55:20;11.80;57.20
67557;DHT22;54387;53.526;49.300;2023-06-05T02:57:46;11.80;57.10
67557;DHT22;54387;53.526;49.300;2023-06-05T03:00:14;11.80;57.00
67557;DHT22;54387;53.526;49.300;2023-06-05T03:02:44;11.90;57.00
67557;DHT22;54387;53.526;49.300;2023-06-05T03:05:17;11.90;56.80
67557;DHT22;54387;53.526;49.300;2023-06-05T03:07:53;12.00;56.60
67557;DHT22;54387;53.526;49.300;2023-06-05T03:10:22;12.10;56.40
67557;DHT22;54387;53.526;49.300;2023-06-05T03:12:48;12.10;56.20
67557;DHT22;54387;53.526;49.300;2023-06-05T03:15:15;12.20;55.90
67557;DHT22;54387;53.526;49.300;2023-06-05T03:17:43;12.30;55.70
67557;DHT22;54387;53.526;49.300;2023-06-05T03:20:11;12.40;55.20
67557;DHT22;54387;53.526;49.300;2023-06-05T03:22:37;12.60;54.90
67557;DHT22;54387;53.526;49.300;2023-06-05T03:25:04;12.70;54.50
67557;DHT22;54387;53.526;49.300;2023-06-05T03:27:31;12.80;54.30
67557;DHT22;54387;53.526;49.300;2023-06-05T03:29:57;12.90;53.70
67557;DHT22;54387;53.526;49.300;2023-06-05T03:32:24;13.00;53.40
67557;DHT22;54387;53.526;49.300;2023-06-05T03:34:51;13.10;53.00
67557;DHT22;54387;53.526;49.300;2023-06-05T03:37:17;13.20;52.50
67557;DHT22;54387;53.526;49.300;2023-06-05T03:39:43;13.30;52.00
67557;DHT22;54387;53.526;49.300;2023-06-05T03:42:09;13.40;51.90
67557;DHT22;54387;53.526;49.300;2023-06-05T03:44:37;13.50;51.80
67557;DHT22;54387;53.526;49.300;2023-06-05T03:47:04;13.60;51.50
67557;DHT22;54387;53.526;49.300;2023-06-05T03:49:30;13.70;50.70
67557;DHT22;54387;53.526;49.300;2023-06-05T03:51:57;13.80;50.50
67557;DHT22;54387;53.526;49.300;2023-06-05T03:54:30;13.90;50.30
67557;DHT22;54387;53.526;49.300;2023-06-05T03:56:59;13.90;50.10
67557;DHT22;54387;53.526;49.300;2023-06-05T03:59:26;14.00;49.30
67557;DHT22;54387;53.526;49.300;2023-06-05T04:01:55;14.10;49.00
67557;DHT22;54387;53.526;49.300;2023-06-05T04:04:22;14.20;48.90
67557;DHT22;54387;53.526;49.300;2023-06-05T04:06:50;14.20;48.10
67557;DHT22;54387;53.526;49.300;2023-06-05T04:09:17;14.30;47.70
67557;DHT22;54387;53.526;49.300;2023-06-05T04:11:44;14.40;47.60
67557;DHT22;54387;53.526;49.300;2023-06-05T04:14:11;14.50;47.50
67557;DHT22;54387;53.526;49.300;2023-06-05T04:16:38;14.70;46.90
67557;DHT22;54387;53.526;49.300;2023-06-05T04:19:06;14.70;46.50
67557;DHT22;54387;53.526;49.300;2023-06-05T04:21:36;14.80;45.70
67557;DHT22;54387;53.526;49.300;2023-06-05T04:24:07;14.90;45.50
67557;DHT22;54387;53.526;49.300;2023-06-05T04:26:37;15.00;45.00
67557;DHT22;54387;53.526;49.300;2023-06-05T04:29:04;15.10;44.40
67557;DHT22;54387;53.526;49.300;2023-06-05T04:31:32;15.10;44.20
67557;DHT22;54387;53.526;49.300;2023-06-05T04:34:00;15.20;43.50
67557;DHT22;54387;53.526;49.300;2023-06-05T04:36:28;15.30;43.30
67557;DHT22;54387;53.526;49.300;2023-06-05T04:38:54;15.40;43.70
67557;DHT22;54387;53.526;49.300;2023-06-05T04:41:22;15.50;42.10
67557;DHT22;54387;53.526;49.300;2023-06-05T04:43:48;15.60;41.40
67557;DHT22;54387;53.526;49.300;2023-06-05T04:46:15;15.60;40.30
67557;DHT22;54387;53.526;49.300;2023-06-05T04:48:45;15.70;39.80
67557;DHT22;54387;53.526;49.300;2023-06-05T04:51:12;15.80;41.00
67557;DHT22;54387;53.526;49.300;2023-06-05T04:53:38;15.90;39.40
67557;DHT22;54387;53.526;49.300;2023-06-05T04:56:08;16.00;39.30
67557;DHT22;54387;53.526;49.300;2023-06-05T04:58:35;16.10;39.00
67557;DHT22;54387;53.526;49.300;2023-06-05T05:01:01;16.20;38.40
67557;DHT22;54387;53.526;49.300;2023-06-05T05:03:31;16.20;37.80
67557;DHT22;54387;53.526;49.300;2023-06-05T05:05:58;16.30;37.50
67557;DHT22;54387;53.526;49.300;2023-06-05T05:08:24;16.30;37.60
67557;DHT22;54387;53.526;49.300;2023-06-05T05:10:50;16.30;37.60
67557;DHT22;54387;53.526;49.300;2023-06-05T05:13:17;16.40;37.20
67557;DHT22;54387;53.526;49.300;2023-06-05T05:15:43;16.50;36.60
67557;DHT22;54387;53.526;49.300;2023-06-05T05:18:10;16.50;36.30
67557;DHT22;54387;53.526;49.300;2023-06-05T05:20:36;16.50;36.00
67557;DHT22;54387;53.526;49.300;2023-06-05T05:23:04;16.50;35.70
67557;DHT22;54387;53.526;49.300;2023-06-05T05:25:34;16.60;35.50
67557;DHT22;54387;53.526;49.300;2023-06-05T05:28:00;16.60;35.20
67557;DHT22;54387;53.526;49.300;2023-06-05T05:30:27;16.70;34.70
67557;DHT22;54387;53.526;49.300;2023-06-05T05:32:53;16.70;33.90
67557;DHT22;54387;53.526;49.300;2023-06-05T05:35:19;16.70;33.50
67557;DHT22;54387;53.526;49.300;2023-06-05T05:37:46;16.70;33.50
67557;DHT22;54387;53.526;49.300;2023-06-05T05:40:12;16.80;34.00
67557;DHT22;54387;53.526;49.300;2023-06-05T05:42:39;16.80;33.80
67557;DHT22;54387;53.526;49.300;2023-06-05T05:45:06;16.90;33.50
67557;DHT22;54387;53.526;49.300;2023-06-05T05:47:33;16.90;33.40
67557;DHT22;54387;53.526;49.300;2023-06-05T05:49:59;16.90;33.00
67557;DHT22;54387;53.526;49.300;2023-06-05T05:52:31;16.90;33.20
67557;DHT22;54387;53.526;49.300;2023-06-05T05:54:58;17.00;33.00
67557;DHT22;54387;53.526;49.300;2023-06-05T05:57:26;17.10;33.00
67557;DHT22;54387;53.526;49.300;2023-06-05T05:59:53;17.20;33.30
67557;DHT22;54387;53.526;49.300;2023-06-05T06:02:20;17.30;33.40
67557;DHT22;54387;53.526;49.300;2023-06-05T06:04:47;17.30;33.00
67557;DHT22;54387;53.526;49.300;2023-06-05T06:07:14;17.40;34.00
67557;DHT22;54387;53.526;49.300;2023-06-05T06:09:41;17.40;33.10
67557;DHT22;54387;53.526;49.300;2023-06-05T06:12:08;17.50;33.40
67557;DHT22;54387;53.526;49.300;2023-06-05T06:14:36;17.60;33.20
67557;DHT22;54387;53.526;49.300;2023-06-05T06:17:03;17.60;33.40
67557;DHT22;54387;53.526;49.300;2023-06-05T06:19:31;17.70;33.60
67557;DHT22;54387;53.526;49.300;2023-06-05T06:21:59;17.80;33.80
67557;DHT22;54387;53.526;49.300;2023-06-05T06:24:25;17.90;33.20
67557;DHT22;54387;53.526;49.300;2023-06-05T06:26:52;17.90;33.70
67557;DHT22;54387;53.526;49.300;2023-06-05T06:29:19;17.90;33.50
67557;DHT22;54387;53.526;49.300;2023-06-05T06:31:50;18.00;33.30
67557;DHT22;54387;53.526;49.300;2023-06-05T06:34:17;18.00;33.20
67557;DHT22;54387;53.526;49.300;2023-06-05T06:36:43;18.10;33.50
67557;DHT22;54387;53.526;49.300;2023-06-05T06:39:11;18.20;33.40
67557;DHT22;54387;53.526;49.300;2023-06-05T06:41:39;18.20;33.00
67557;DHT22;54387;53.526;49.300;2023-06-05T06:44:06;18.40;32.40
67557;DHT22;54387;53.526;49.300;2023-06-05T06:46:33;18.40;31.90
67557;DHT22;54387;53.526;49.300;2023-06-05T06:48:59;18.50;30.90
67557;DHT22;54387;53.526;49.300;2023-06-05T06:51:26;18.50;30.60
67557;DHT22;54387;53.526;49.300;2023-06-05T06:53:53;18.50;30.40
67557;DHT22;54387;53.526;49.300;2023-06-05T06:56:21;18.50;30.70
67557;DHT22;54387;53.526;49.300;2023-06-05T06:58:48;18.60;30.40
67557;DHT22;54387;53.526;49.300;2023-06-05T07:01:15;18.60;30.20
67557;DHT22;54387;53.526;49.300;2023-06-05T07:03:53;18.60;30.00
67557;DHT22;54387;53.526;49.300;2023-06-05T07:06:20;18.70;30.40
67557;DHT22;54387;53.526;49.300;2023-06-05T07:08:50;18.70;30.10
67557;DHT22;54387;53.526;49.300;2023-06-05T07:11:17;18.80;30.30
67557;DHT22;54387;53.526;49.300;2023-06-05T07:13:44;18.80;30.30
67557;DHT22;54387;53.526;49.300;2023-06-05T07:16:10;18.90;30.10
67557;DHT22;54387;53.526;49.300;2023-06-05T07:18:37;19.00;29.90
67557;DHT22;54387;53.526;49.300;2023-06-05T07:21:03;19.10;29.40
67557;DHT22;54387;53.526;49.300;2023-06-05T07:23:30;19.10;28.90
67557;DHT22;54387;53.526;49.300;2023-06-05T07:25:56;19.20;29.10
67557;DHT22;54387;53.526;49.300;2023-06-05T07:28:23;19.20;28.70
67557;DHT22;54387;53.526;49.300;2023-06-05T07:30:51;19.20;28.90
67557;DHT22;54387;53.526;49.300;2023-06-05T07:33:17;19.30;29.90
67557;DHT22;54387;53.526;49.300;2023-06-05T07:35:46;19.40;29.10
67557;DHT22;54387;53.526;49.300;2023-06-05T07:38:14;19.40;29.20
67557;DHT22;54387;53.526;49.300;2023-06-05T07:40:41;19.40;29.10
67557;DHT22;54387;53.526;49.300;2023-06-05T07:43:08;19.50;29.10
67557;DHT22;54387;53.526;49.300;2023-06-05T07:45:39;19.50;29.00
67557;DHT22;54387;53.526;49.300;2023-06-05T07:48:06;19.50;29.10
67557;DHT22;54387;53.526;49.300;2023-06-05T07:50:33;19.50;29.00
67557;DHT22;54387;53.526;49.300;2023-06-05T07:52:59;19.60;29.50
67557;DHT22;54387;53.526;49.300;2023-06-05T07:55:27;19.70;29.50
67557;DHT22;54387;53.526;49.300;2023-06-05T07:57:54;19.80;29.10
67557;DHT22;54387;53.526;49.300;2023-06-05T08:00:22;19.80;29.00
67557;DHT22;54387;53.526;49.300;2023-06-05T08:02:49;19.80;29.20
67557;DHT22;54387;53.526;49.300;2023-06-05T08:05:17;19.90;28.90
67557;DHT22;54387;53.526;49.300;2023-06-05T08:07:47;19.90;28.80
67557;DHT22;54387;53.526;49.300;2023-06-05T08:10:13;19.90;28.60
67557;DHT22;54387;53.526;49.300;2023-06-05T08:12:40;20.00;28.50
67557;DHT22;54387;53.526;49.300;2023-06-05T08:15:07;20.00;28.70
67557;DHT22;54387;53.526;49.300;2023-06-05T08:17:34;20.10;28.80
67557;DHT22;54387;53.526;49.300;2023-06-05T08:20:00;20.10;28.80
67557;DHT22;54387;53.526;49.300;2023-06-05T08:22:28;20.20;28.60
67557;DHT22;54387;53.526;49.300;2023-06-05T08:24:54;20.30;28.20
67557;DHT22;54387;53.526;49.300;2023-06-05T08:27:23;20.30;27.80
67557;DHT22;54387;53.526;49.300;2023-06-05T08:29:49;20.30;27.90
67557;DHT22;54387;53.526;49.300;2023-06-05T08:32:17;20.40;27.80
67557;DHT22;54387;53.526;49.300;2023-06-05T08:34:45;20.50;28.00
67557;DHT22;54387;53.526;49.300;2023-06-05T08:37:12;20.70;28.10
67557;DHT22;54387;53.526;49.300;2023-06-05T08:39:39;20.80;28.20
67557;DHT22;54387;53.526;49.300;2023-06-05T08:42:05;20.90;27.90
67557;DHT22;54387;53.526;49.300;2023-06-05T08:44:34;21.10;27.60
67557;DHT22;54387;53.526;49.300;2023-06-05T08:47:02;21.20;27.10
67557;DHT22;54387;53.526;49.300;2023-06-05T08:49:29;21.20;27.20
67557;DHT22;54387;53.526;49.300;2023-06-05T08:52:07;21.30;27.10
67557;DHT22;54387;53.526;49.300;2023-06-05T08:54:37;21.30;27.00
67557;DHT22;54387;53.526;49.300;2023-06-05T08:57:06;21.30;26.90
67557;DHT22;54387;53.526;49.300;2023-06-05T08:59:33;21.30;26.40
67557;DHT22;54387;53.526;49.300;2023-06-05T09:02:00;21.30;26.50
67557;DHT22;54387;53.526;49.300;2023-06-05T09:04:26;21.40;26.40
67557;DHT22;54387;53.526;49.300;2023-06-05T09:06:57;21.60;25.60
67557;DHT22;54387;53.526;49.300;2023-06-05T09:09:25;21.60;25.70
67557;DHT22;54387;53.526;49.300;2023-06-05T09:12:08;21.60;25.50
67557;DHT22;54387;53.526;49.300;2023-06-05T09:14:38;21.60;25.60
67557;DHT22;54387;53.526;49.300;2023-06-05T09:17:05;21.80;26.10
67557;DHT22;54387;53.526;49.300;2023-06-05T09:19:41;22.20;26.40
67557;DHT22;54387;53.526;49.300;2023-06-05T09:22:14;23.00;26.30
67557;DHT22;54387;53.526;49.300;2023-06-05T09:24:43;23.80;25.50
67557;DHT22;54387;53.526;49.300;2023-06-05T09:27:16;24.90;24.70
67557;DHT22;54387;53.526;49.300;2023-06-05T09:29:45;26.20;23.30
67557;DHT22;54387;53.526;49.300;2023-06-05T09:32:18;27.80;22.50
67557;DHT22;54387;53.526;49.300;2023-06-05T09:34:55;29.60;21.40
67557;DHT22;54387;53.526;49.300;2023-06-05T09:37:36;31.30;20.50
67557;DHT22;54387;53.526;49.300;2023-06-05T09:40:04;33.30;19.50
67557;DHT22;54387;53.526;49.300;2023-06-05T09:42:35;35.10;18.80
67557;DHT22;54387;53.526;49.300;2023-06-05T09:45:02;36.40;17.90
67557;DHT22;54387;53.526;49.300;2023-06-05T09:47:30;37.00;17.60
67557;DHT22;54387;53.526;49.300;2023-06-05T09:49:56;37.70;17.10
67557;DHT22;54387;53.526;49.300;2023-06-05T09:52:24;38.20;16.90
67557;DHT22;54387;53.526;49.300;2023-06-05T09:54:54;39.10;16.60
67557;DHT22;54387;53.526;49.300;2023-06-05T09:57:22;39.60;16.30
67557;DHT22;54387;53.526;49.300;2023-06-05T10:02:23;39.10;16.10
67557;DHT22;54387;53.526;49.300;2023-06-05T10:05:02;39.40;16.00
67557;DHT22;54387;53.526;49.300;2023-06-05T10:07:31;40.70;15.70
67557;DHT22;54387;53.526;49.300;2023-06-05T10:09:58;42.10;15.70
67557;DHT22;54387;53.526;49.300;2023-06-05T10:12:25;43.30;15.20
67557;DHT22;54387;53.526;49.300;2023-06-05T10:14:54;44.10;15.00
67557;DHT22;54387;53.526;49.300;2023-06-05T10:17:24;44.80;14.90
67557;DHT22;54387;53.526;49.300;2023-06-05T10:19:51;45.40;14.60
67557;DHT22;54387;53.526;49.300;2023-06-05T10:22:18;45.50;14.50
67557;DHT22;54387;53.526;49.300;2023-06-05T10:24:52;44.70;14.20
67557;DHT22;54387;53.526;49.300;2023-06-05T10:28:02;43.90;14.20
67557;DHT22;54387;53.526;49.300;2023-06-05T10:39:08;45.70;14.00
67557;DHT22;54387;53.526;49.300;2023-06-05T10:41:36;46.30;14.10
67557;DHT22;54387;53.526;49.300;2023-06-05T10:44:03;47.40;14.00
67557;DHT22;54387;53.526;49.300;2023-06-05T10:46:37;47.90;13.80
67557;DHT22;54387;53.526;49.300;2023-06-05T10:51:42;48.00;13.50
67557;DHT22;54387;53.526;49.300;2023-06-05T10:54:14;47.80;13.60
67557;DHT22;54387;53.526;49.300;2023-06-05T10:59:19;48.10;13.60
67557;DHT22;54387;53.526;49.300;2023-06-05T11:07:23;47.40;13.40
67557;DHT22;54387;53.526;49.300;2023-06-05T11:15:03;47.90;13.20
67557;DHT22;54387;53.526;49.300;2023-06-05T11:17:34;48.10;13.20
67557;DHT22;54387;53.526;49.300;2023-06-05T11:20:09;48.60;13.30
67557;DHT22;54387;53.526;49.300;2023-06-05T11:25:24;48.80;13.00
67557;DHT22;54387;53.526;49.300;2023-06-05T11:30:29;48.10;12.90
67557;DHT22;54387;53.526;49.300;2023-06-05T11:33:16;47.80;13.10
67557;DHT22;54387;53.526;49.300;2023-06-05T11:35:47;48.20;13.10
67557;DHT22;54387;53.526;49.300;2023-06-05T11:38:18;48.30;13.00
67557;DHT22;54387;53.526;49.300;2023-06-05T11:40:44;47.20;13.20
67557;DHT22;54387;53.526;49.300;2023-06-05T11:43:12;45.40;13.20
67557;DHT22;54387;53.526;49.300;2023-06-05T11:45:40;44.30;13.30
67557;DHT22;54387;53.526;49.300;2023-06-05T11:48:11;43.00;13.30
67557;DHT22;54387;53.526;49.300;2023-06-05T11:50:51;42.40;13.50
67557;DHT22;54387;53.526;49.300;2023-06-05T11:53:18;41.80;13.60
67557;DHT22;54387;53.526;49.300;2023-06-05T11:55:45;40.70;13.60
67557;DHT22;54387;53.526;49.300;2023-06-05T12:00:49;39.60;13.90
67557;DHT22;54387;53.526;49.300;2023-06-05T12:03:19;39.90;14.10
67557;DHT22;54387;53.526;49.300;2023-06-05T12:05:50;39.70;13.60
67557;DHT22;54387;53.526;49.300;2023-06-05T12:08:27;38.70;13.80
67557;DHT22;54387;53.526;49.300;2023-06-05T12:10:55;37.40;14.20
67557;DHT22;54387;53.526;49.300;2023-06-05T12:13:56;36.20;15.70
67557;DHT22;54387;53.526;49.300;2023-06-05T12:16:36;35.50;15.40
67557;DHT22;54387;53.526;49.300;2023-06-05T12:19:17;34.60;15.00
67557;DHT22;54387;53.526;49.300;2023-06-05T12:21:46;33.60;15.60
67557;DHT22;54387;53.526;49.300;2023-06-05T12:24:13;32.60;16.10
67557;DHT22;54387;53.526;49.300;2023-06-05T12:26:55;31.70;16.80
67557;DHT22;54387;53.526;49.300;2023-06-05T12:29:33;31.00;17.00
67557;DHT22;54387;53.526;49.300;2023-06-05T12:32:02;30.40;17.60
67557;DHT22;54387;53.526;49.300;2023-06-05T12:34:42;29.90;17.50
67557;DHT22;54387;53.526;49.300;2023-06-05T12:37:32;29.50;17.20
67557;DHT22;54387;53.526;49.300;2023-06-05T12:39:59;29.20;17.50
67557;DHT22;54387;53.526;49.300;2023-06-05T12:42:26;29.30;17.60
67557;DHT22;54387;53.526;49.300;2023-06-05T12:44:53;29.70;17.80
67557;DHT22;54387;53.526;49.300;2023-06-05T12:47:20;29.80;17.50
67557;DHT22;54387;53.526;49.300;2023-06-05T12:49:47;29.60;17.20
67557;DHT22;54387;53.526;49.300;2023-06-05T12:52:13;29.30;17.40
67557;DHT22;54387;53.526;49.300;2023-06-05T12:54:40;29.10;17.40
67557;DHT22;54387;53.526;49.300;2023-06-05T12:57:07;29.30;18.40
67557;DHT22;54387;53.526;49.300;2023-06-05T12:59:34;29.50;17.90
67557;DHT22;54387;53.526;49.300;2023-06-05T13:02:01;29.50;18.60
67557;DHT22;54387;53.526;49.300;2023-06-05T13:04:29;29.60;18.10
67557;DHT22;54387;53.526;49.300;2023-06-05T13:06:57;30.10;18.30
67557;DHT22;54387;53.526;49.300;2023-06-05T13:09:25;30.80;18.10
67557;DHT22;54387;53.526;49.300;2023-06-05T13:11:52;31.20;17.80
67557;DHT22;54387;53.526;49.300;2023-06-05T13:14:18;31.10;17.90
67557;DHT22;54387;53.526;49.300;2023-06-05T13:16:44;30.80;18.10
67557;DHT22;54387;53.526;49.300;2023-06-05T13:19:15;30.50;18.10
67557;DHT22;54387;53.526;49.300;2023-06-05T13:21:41;30.10;17.50
67557;DHT22;54387;53.526;49.300;2023-06-05T13:24:07;29.70;18.40
67557;DHT22;54387;53.526;49.300;2023-06-05T13:26:34;29.20;18.00
67557;DHT22;54387;53.526;49.300;2023-06-05T13:29:01;28.90;18.70
67557;DHT22;54387;53.526;49.300;2023-06-05T13:31:27;28.60;18.90
67557;DHT22;54387;53.526;49.300;2023-06-05T13:33:54;28.40;19.20
67557;DHT22;54387;53.526;49.300;2023-06-05T13:36:21;28.50;19.10
67557;DHT22;54387;53.526;49.300;2023-06-05T13:38:49;28.60;19.50
67557;DHT22;54387;53.526;49.300;2023-06-05T13:41:16;28.80;18.90
67557;DHT22;54387;53.526;49.300;2023-06-05T13:43:42;29.00;18.60
67557;DHT22;54387;53.526;49.300;2023-06-05T13:46:09;29.20;17.80
67557;DHT22;54387;53.526;49.300;2023-06-05T13:48:36;29.10;17.70
67557;DHT22;54387;53.526;49.300;2023-06-05T13:51:03;29.10;17.70
67557;DHT22;54387;53.526;49.300;2023-06-05T13:53:31;29.00;17.90
67557;DHT22;54387;53.526;49.300;2023-06-05T13:56:04;28.80;18.10
67557;DHT22;54387;53.526;49.300;2023-06-05T13:58:31;28.40;18.30
67557;DHT22;54387;53.526;49.300;2023-06-05T14:01:00;28.40;18.20
67557;DHT22;54387;53.526;49.300;2023-06-05T14:03:27;28.30;18.00
67557;DHT22;54387;53.526;49.300;2023-06-05T14:05:54;28.00;18.30
67557;DHT22;54387;53.526;49.300;2023-06-05T14:08:20;27.70;18.70
67557;DHT22;54387;53.526;49.300;2023-06-05T14:10:46;27.60;18.80
67557;DHT22;54387;53.526;49.300;2023-06-05T14:13:13;27.50;18.70
67557;DHT22;54387;53.526;49.300;2023-06-05T14:15:40;27.40;18.80
67557;DHT22;54387;53.526;49.300;2023-06-05T14:18:07;27.20;19.20
67557;DHT22;54387;53.526;49.300;2023-06-05T14:20:46;27.00;19.30
67557;DHT22;54387;53.526;49.300;2023-06-05T14:23:12;27.00;19.60
67557;DHT22;54387;53.526;49.300;2023-06-05T14:25:40;26.90;19.60
67557;DHT22;54387;53.526;49.300;2023-06-05T14:28:06;26.70;19.70
67557;DHT22;54387;53.526;49.300;2023-06-05T14:30:33;26.50;20.00
67557;DHT22;54387;53.526;49.300;2023-06-05T14:32:59;26.20;20.20
67557;DHT22;54387;53.526;49.300;2023-06-05T14:35:25;26.00;20.10
67557;DHT22;54387;53.526;49.300;2023-06-05T14:37:53;25.80;20.00
67557;DHT22;54387;53.526;49.300;2023-06-05T14:40:19;25.70;20.20
67557;DHT22;54387;53.526;49.300;2023-06-05T14:42:45;25.80;20.10
67557;DHT22;54387;53.526;49.300;2023-06-05T14:45:11;25.90;19.80
67557;DHT22;54387;53.526;49.300;2023-06-05T14:47:37;25.90;19.90
67557;DHT22;54387;53.526;49.300;2023-06-05T14:50:04;25.90;19.80
67557;DHT22;54387;53.526;49.300;2023-06-05T14:52:30;25.90;20.10
67557;DHT22;54387;53.526;49.300;2023-06-05T14:54:56;25.90;20.90
67557;DHT22;54387;53.526;49.300;2023-06-05T14:57:23;25.80;21.50
67557;DHT22;54387;53.526;49.300;2023-06-05T14:59:49;25.60;21.80
67557;DHT22;54387;53.526;49.300;2023-06-05T15:02:15;25.30;22.30
67557;DHT22;54387;53.526;49.300;2023-06-05T15:04:42;24.90;22.80
67557;DHT22;54387;53.526;49.300;2023-06-05T15:07:09;24.60;23.20
67557;DHT22;54387;53.526;49.300;2023-06-05T15:09:36;24.20;23.40
67557;DHT22;54387;53.526;49.300;2023-06-05T15:12:02;24.00;23.80
67557;DHT22;54387;53.526;49.300;2023-06-05T15:14:31;23.70;23.90
67557;DHT22;54387;53.526;49.300;2023-06-05T15:16:58;23.50;24.00
67557;DHT22;54387;53.526;49.300;2023-06-05T15:19:24;23.30;24.20
67557;DHT22;54387;53.526;49.300;2023-06-05T15:21:50;23.10;24.40
67557;DHT22;54387;53.526;49.300;2023-06-05T15:24:17;23.00;24.80
67557;DHT22;54387;53.526;49.300;2023-06-05T15:26:43;22.90;25.00
67557;DHT22;54387;53.526;49.300;2023-06-05T15:29:10;22.70;25.50
67557;DHT22;54387;53.526;49.300;2023-06-05T15:31:36;22.60;25.70
67557;DHT22;54387;53.526;49.300;2023-06-05T15:34:03;22.40;26.00
67557;DHT22;54387;53.526;49.300;2023-06-05T15:36:29;22.20;26.00
67557;DHT22;54387;53.526;49.300;2023-06-05T15:38:55;22.00;26.20
67557;DHT22;54387;53.526;49.300;2023-06-05T15:41:23;21.90;26.50
67557;DHT22;54387;53.526;49.300;2023-06-05T15:43:50;21.70;26.70
67557;DHT22;54387;53.526;49.300;2023-06-05T15:46:16;21.60;26.90
67557;DHT22;54387;53.526;49.300;2023-06-05T15:48:43;21.40;26.90
67557;DHT22;54387;53.526;49.300;2023-06-05T15:51:09;21.40;27.10
67557;DHT22;54387;53.526;49.300;2023-06-05T15:53:35;21.30;27.10
67557;DHT22;54387;53.526;49.300;2023-06-05T15:56:02;21.20;27.20
67557;DHT22;54387;53.526;49.300;2023-06-05T15:58:28;21.10;27.30
67557;DHT22;54387;53.526;49.300;2023-06-05T16:00:55;21.00;27.40